Time;durP1;ratioP1;P1;durP2;ratioP2;P2;SDS_P1;SDS_P2;PMS_P1;PMS_P2;Temp;Humidity;BMP_temperature;BMP_pressure;BME280_temperature;BME280_humidity;BME280_pressure;Samples;Min_cycle;Max_cycle;Signal;HPM_P1;HPM_P2
2022/09/26 00:01:22;;;;;;;19.17;11.30;;;;;;;12.01;71.55;100214.56;1701462;82;21579;-61
2022/09/26 00:03:52;;;;;;;15.08;10.58;;;;;;;12.00;71.69;100213.37;1689236;82;21077;-61
2022/09/26 00:06:21;;;;;;;14.85;10.70;;;;;;;12.01;71.74;100215.88;1693458;82;21064;-61
2022/09/26 00:08:49;;;;;;;15.18;10.25;;;;;;;12.07;71.67;100210.56;1714634;82;21211;-61
2022/09/26 00:11:23;;;;;;;15.08;10.58;;;;;;;12.12;71.64;100222.00;1675581;84;21627;-61
2022/09/26 00:13:55;;;;;;;13.38;10.50;;;;;;;12.13;71.53;100219.72;1695591;83;21030;-61
2022/09/26 00:16:23;;;;;;;13.03;10.50;;;;;;;12.10;71.58;100214.72;1693323;83;21094;-61
2022/09/26 00:18:52;;;;;;;13.93;9.45;;;;;;;12.06;71.61;100213.66;1690631;83;21042;-61
2022/09/26 00:21:19;;;;;;;13.10;9.88;;;;;;;12.05;71.68;100210.70;1662025;84;22122;-61
2022/09/26 00:23:47;;;;;;;13.60;9.85;;;;;;;12.07;71.48;100204.80;1695378;83;21024;-61
2022/09/26 00:26:15;;;;;;;14.60;10.38;;;;;;;12.12;71.34;100206.17;1693697;83;21078;-61
2022/09/26 00:28:41;;;;;;;14.40;9.88;;;;;;;12.10;71.28;100201.53;1685993;83;21085;-61
2022/09/26 00:31:11;;;;;;;12.47;10.00;;;;;;;12.07;71.26;100190.29;1676941;83;21068;-61
2022/09/26 00:33:37;;;;;;;13.45;9.43;;;;;;;12.05;71.18;100190.92;1687998;83;21130;-61
2022/09/26 00:36:05;;;;;;;15.85;10.03;;;;;;;12.04;71.02;100185.78;1672260;83;21081;-61
2022/09/26 00:38:31;;;;;;;11.33;8.28;;;;;;;12.03;70.79;100183.61;1680736;83;21065;-62
2022/09/26 00:40:58;;;;;;;10.82;8.00;;;;;;;12.10;70.39;100188.34;1689730;83;21133;-61
2022/09/26 00:43:43;;;;;;;13.32;8.98;;;;;;;12.12;70.20;100190.34;1691165;83;21101;-62
2022/09/26 00:46:34;;;;;;;11.45;8.33;;;;;;;12.12;69.93;100186.39;1681426;83;21062;-62
2022/09/26 00:49:32;;;;;;;11.05;8.55;;;;;;;12.12;69.92;100183.75;1695883;83;21022;-62
2022/09/26 00:52:08;;;;;;;14.47;8.35;;;;;;;12.07;69.94;100185.02;1671153;84;21065;-61
2022/09/26 00:54:35;;;;;;;12.20;8.33;;;;;;;12.03;70.12;100184.10;1648239;84;21124;-61
2022/09/26 00:57:10;;;;;;;11.00;8.15;;;;;;;12.05;70.08;100192.70;1684829;83;21086;-61
2022/09/26 00:59:40;;;;;;;12.00;9.13;;;;;;;12.10;69.46;100206.80;1685040;83;21109;-62
2022/09/26 01:02:08;;;;;;;11.08;8.88;;;;;;;12.11;69.27;100192.16;1686949;83;21090;-62
2022/09/26 01:04:37;;;;;;;11.78;7.90;;;;;;;12.08;69.32;100187.98;1662086;84;21608;-62
2022/09/26 01:07:09;;;;;;;11.60;8.28;;;;;;;12.08;69.65;100188.47;1683112;83;21043;-61
2022/09/26 01:09:36;;;;;;;11.05;8.35;;;;;;;12.07;69.97;100186.33;1689071;83;21216;-62
2022/09/26 01:12:05;;;;;;;13.38;8.30;;;;;;;12.08;70.14;100193.75;1682941;83;21098;-62
2022/09/26 01:14:32;;;;;;;11.05;8.45;;;;;;;12.13;70.15;100182.30;1688539;83;21501;-62
2022/09/26 01:16:59;;;;;;;12.58;8.48;;;;;;;12.17;70.14;100186.34;1669331;83;21070;-62
2022/09/26 01:20:13;;;;;;;12.55;8.55;;;;;;;12.17;70.28;100182.86;1681293;83;21039;-62
2022/09/26 01:23:01;;;;;;;11.50;7.97;;;;;;;12.14;70.41;100179.17;1676276;83;21145;-62
2022/09/26 01:25:56;;;;;;;10.82;8.08;;;;;;;12.10;70.62;100176.47;1680675;83;21070;-62
2022/09/26 01:28:58;;;;;;;10.03;7.62;;;;;;;12.08;70.56;100176.11;1672828;83;21125;-61
2022/09/26 01:35:11;;;;;;;9.88;7.83;;;;;;;12.13;70.95;100180.98;1673199;83;21008;-61
2022/09/26 01:37:48;;;;;;;10.43;8.13;;;;;;;12.07;71.50;100181.06;1677371;83;21513;-61
2022/09/26 01:40:55;;;;;;;10.15;7.37;;;;;;;12.01;71.92;100171.05;1672086;83;21140;-61
2022/09/26 01:43:48;;;;;;;13.22;7.85;;;;;;;11.99;72.18;100173.00;1673058;83;21133;-62
2022/09/26 01:46:29;;;;;;;10.72;8.23;;;;;;;12.03;72.38;100180.14;1663501;83;21017;-61
2022/09/26 01:49:04;;;;;;;11.65;8.45;;;;;;;12.00;72.71;100181.27;1671810;83;21086;-62
2022/09/26 01:51:55;;;;;;;11.63;9.23;;;;;;;11.95;72.98;100185.27;1671808;83;21097;-62
2022/09/26 01:54:38;;;;;;;10.55;8.13;;;;;;;11.90;73.30;100182.53;1681961;82;21136;-61
2022/09/26 01:57:08;;;;;;;11.25;7.78;;;;;;;11.89;73.56;100182.67;1663044;83;21073;-62
2022/09/26 01:59:40;;;;;;;11.20;8.28;;;;;;;11.93;73.69;100176.17;1674327;83;21058;-61
2022/09/26 02:02:25;;;;;;;11.48;8.35;;;;;;;11.95;73.83;100168.12;1685773;83;21576;-61
2022/09/26 02:05:01;;;;;;;11.28;8.15;;;;;;;11.94;74.20;100171.26;1687490;83;21108;-62
2022/09/26 02:07:43;;;;;;;10.30;7.53;;;;;;;11.92;74.44;100174.98;1667416;83;21105;-61
2022/09/26 02:10:28;;;;;;;11.15;7.75;;;;;;;11.96;74.55;100186.95;1687300;83;21584;-61
2022/09/26 02:12:59;;;;;;;10.60;8.35;;;;;;;12.07;73.75;100198.70;1680436;83;21074;-61
2022/09/26 02:15:27;;;;;;;10.68;8.35;;;;;;;12.10;73.56;100189.66;1679767;83;21070;-61
2022/09/26 02:17:59;;;;;;;9.93;7.85;;;;;;;12.09;73.70;100194.11;1637931;86;21034;-61
2022/09/26 02:20:34;;;;;;;12.30;8.20;;;;;;;12.16;73.60;100191.27;1676118;83;21118;-61
2022/09/26 02:23:07;;;;;;;9.70;7.80;;;;;;;12.20;73.24;100190.00;1696226;83;21698;-61
2022/09/26 02:25:30;;;;;;;12.23;8.60;;;;;;;12.20;73.09;100189.17;1695407;83;21018;-61
2022/09/26 02:27:57;;;;;;;12.40;8.38;;;;;;;12.17;73.02;100188.12;1683498;83;21586;-62
2022/09/26 02:30:25;;;;;;;11.93;9.08;;;;;;;12.14;72.96;100194.99;1686590;83;21093;-62
2022/09/26 02:32:51;;;;;;;13.70;8.98;;;;;;;12.10;72.96;100189.66;1686863;83;21710;-62
2022/09/26 02:38:06;;;;;;;11.10;8.65;;;;;;;12.14;72.85;100180.48;1675733;83;21568;-62
2022/09/26 02:41:04;;;;;;;13.03;9.23;;;;;;;12.14;73.03;100177.85;1684164;83;21133;-62
2022/09/26 02:43:45;;;;;;;12.82;8.63;;;;;;;12.06;73.35;100171.47;1686405;83;21077;-61
2022/09/26 02:46:42;;;;;;;11.30;7.80;;;;;;;12.01;73.80;100168.91;1685957;83;21116;-61
2022/09/26 02:49:35;;;;;;;9.20;7.05;;;;;;;12.01;74.17;100168.91;1675603;83;21102;-61
2022/09/26 02:52:58;;;;;;;11.10;8.43;;;;;;;12.08;74.22;100165.56;1685359;83;21074;-62
2022/09/26 02:55:32;;;;;;;11.03;8.53;;;;;;;12.06;74.36;100168.83;1694841;83;21150;-61
2022/09/26 02:58:13;;;;;;;11.60;9.00;;;;;;;11.99;74.66;100163.77;1673038;83;21128;-61
2022/09/26 03:01:14;;;;;;;11.73;9.00;;;;;;;11.93;74.96;100165.63;1678876;83;21117;-61
2022/09/26 03:03:52;;;;;;;11.65;8.98;;;;;;;11.90;75.11;100155.31;1688517;83;21129;-61
2022/09/26 03:06:23;;;;;;;11.40;8.48;;;;;;;11.91;75.14;100158.34;1685032;83;21018;-61
2022/09/26 03:08:49;;;;;;;10.78;8.15;;;;;;;11.91;75.35;100154.39;1683656;83;21015;-61
2022/09/26 03:11:21;;;;;;;10.85;8.93;;;;;;;11.90;75.59;100154.00;1674504;83;21609;-61
2022/09/26 03:13:47;;;;;;;11.88;7.87;;;;;;;11.84;75.73;100150.11;1684229;83;21379;-61
2022/09/26 03:16:16;;;;;;;11.63;8.53;;;;;;;11.85;75.83;100157.53;1641433;83;21097;-60
2022/09/26 03:19:01;;;;;;;10.53;8.75;;;;;;;11.92;75.94;100154.75;1688194;83;21100;-61
2022/09/26 03:21:28;;;;;;;10.80;8.30;;;;;;;11.95;75.89;100142.58;1686593;83;21540;-61
2022/09/26 03:23:56;;;;;;;12.85;8.30;;;;;;;11.95;75.91;100138.63;1690570;83;21110;-61
2022/09/26 03:26:25;;;;;;;12.00;8.78;;;;;;;11.93;76.01;100139.75;1654595;83;21140;-61
2022/09/26 03:28:55;;;;;;;11.18;8.38;;;;;;;11.90;76.10;100131.13;1690860;83;21037;-61
2022/09/26 03:31:24;;;;;;;12.40;7.60;;;;;;;11.90;76.13;100136.86;1680603;83;21118;-61
2022/09/26 03:34:01;;;;;;;11.05;8.43;;;;;;;11.96;76.17;100148.71;1682635;83;21549;-61
2022/09/26 03:36:28;;;;;;;11.20;8.43;;;;;;;11.99;76.20;100143.98;1687154;83;21097;-61
2022/09/26 03:38:55;;;;;;;11.45;9.08;;;;;;;12.03;76.30;100151.14;1685588;83;21128;-60
2022/09/26 03:41:23;;;;;;;11.43;9.20;;;;;;;12.00;76.27;100155.36;1683880;83;21091;-61
2022/09/26 03:43:52;;;;;;;14.00;9.48;;;;;;;11.97;76.45;100156.48;1666282;83;21099;-61
2022/09/26 03:46:19;;;;;;;12.10;9.40;;;;;;;11.93;76.48;100147.66;1690174;83;21093;-60
2022/09/26 03:48:45;;;;;;;12.50;9.08;;;;;;;11.90;76.30;100150.05;1694572;83;21057;-61
2022/09/26 03:51:12;;;;;;;11.65;8.30;;;;;;;11.90;76.17;100144.77;1680447;83;21093;-61
2022/09/26 03:53:42;;;;;;;11.28;8.30;;;;;;;11.90;76.14;100140.81;1652453;83;21142;-60
2022/09/26 03:56:13;;;;;;;13.95;8.48;;;;;;;11.90;76.31;100143.45;1684300;83;22118;-60
2022/09/26 03:58:41;;;;;;;11.90;8.88;;;;;;;11.88;76.38;100150.20;1682857;83;21610;-61
2022/09/26 04:01:13;;;;;;;11.88;8.65;;;;;;;11.87;76.46;100141.11;1685963;83;21501;-60
2022/09/26 04:03:42;;;;;;;11.18;8.03;;;;;;;11.88;76.46;100146.25;1686774;83;21187;-61
2022/09/26 04:06:10;;;;;;;11.65;8.10;;;;;;;11.93;76.34;100145.84;1694617;83;21120;-60
2022/09/26 04:08:40;;;;;;;17.17;9.35;;;;;;;11.94;76.22;100144.89;1685983;83;21025;-60
2022/09/26 04:11:12;;;;;;;10.75;8.45;;;;;;;11.94;76.25;100147.53;1681063;83;21073;-61
2022/09/26 04:13:38;;;;;;;14.05;8.80;;;;;;;11.92;76.35;100146.84;1672876;83;21027;-60
2022/09/26 04:16:08;;;;;;;12.60;9.00;;;;;;;11.88;76.46;100140.98;1705913;83;21127;-60
2022/09/26 04:18:36;;;;;;;10.30;7.70;;;;;;;11.88;76.42;100148.03;1688399;83;21053;-61
2022/09/26 04:21:08;;;;;;;9.95;7.30;;;;;;;11.91;76.22;100153.07;1656993;83;21137;-61
2022/09/26 04:23:38;;;;;;;9.90;7.80;;;;;;;11.91;76.10;100147.80;1672627;83;21054;-61
2022/09/26 04:26:13;;;;;;;11.75;7.78;;;;;;;11.91;76.03;100153.07;1688221;83;21577;-61
2022/09/26 04:28:41;;;;;;;9.83;7.30;;;;;;;11.91;75.89;100150.44;1677103;83;21227;-62
2022/09/26 04:31:09;;;;;;;8.78;6.40;;;;;;;11.90;75.57;100151.36;1671153;83;21060;-61
2022/09/26 04:33:39;;;;;;;8.65;6.60;;;;;;;11.90;75.28;100149.58;1678495;83;21090;-61
2022/09/26 04:36:12;;;;;;;9.70;7.33;;;;;;;11.96;74.90;100152.66;1697558;83;21474;-61
2022/09/26 04:40:32;;;;;;;10.63;7.03;;;;;;;12.06;74.35;100151.69;1800457;79;22510;-62
2022/09/26 04:43:05;;;;;;;14.93;7.60;;;;;;;12.06;73.75;100155.64;1774455;79;21058;-63
2022/09/26 04:45:32;;;;;;;10.32;7.17;;;;;;;12.03;73.85;100155.91;1770164;78;21147;-63
2022/09/26 04:48:00;;;;;;;11.78;7.40;;;;;;;11.99;73.76;100154.53;1777153;79;21563;-63
2022/09/26 04:50:29;;;;;;;10.25;7.00;;;;;;;11.95;73.84;100150.98;1764937;80;21035;-62
2022/09/26 04:53:05;;;;;;;12.58;6.33;;;;;;;12.00;73.76;100154.05;1770350;78;21026;-62
2022/09/26 04:55:34;;;;;;;9.30;6.42;;;;;;;12.03;73.76;100149.33;1778092;79;21674;-62
2022/09/26 04:58:01;;;;;;;9.20;6.70;;;;;;;12.06;73.78;100151.69;1769986;80;21775;-63
2022/09/26 05:00:28;;;;;;;11.00;6.97;;;;;;;12.07;73.93;100150.73;1782168;78;21042;-63
2022/09/26 05:02:55;;;;;;;11.40;7.80;;;;;;;12.06;73.91;100149.55;1796305;78;21428;-63
2022/09/26 05:05:22;;;;;;;9.03;6.47;;;;;;;12.02;73.86;100145.04;1765699;78;20995;-63
2022/09/26 05:07:49;;;;;;;9.70;7.15;;;;;;;12.01;73.65;100147.81;1774889;79;21026;-63
2022/09/26 05:10:16;;;;;;;10.20;7.80;;;;;;;12.03;73.37;100149.81;1767975;79;21118;-63
2022/09/26 05:12:45;;;;;;;9.53;6.75;;;;;;;12.03;73.13;100149.33;1712972;81;21101;-64
2022/09/26 05:15:12;;;;;;;8.88;6.78;;;;;;;11.98;73.04;100143.63;1723014;81;21035;-63
2022/09/26 05:17:39;;;;;;;12.50;7.50;;;;;;;11.95;72.93;100145.72;1738452;80;21528;-63
2022/09/26 05:20:07;;;;;;;9.50;6.55;;;;;;;11.93;72.90;100139.75;1727210;81;21047;-63
2022/09/26 05:22:51;;;;;;;8.50;6.62;;;;;;;11.93;72.84;100136.63;1740888;81;21694;-63
2022/09/26 05:28:03;;;;;;;11.50;7.08;;;;;;;12.02;72.60;100126.58;1712633;81;21109;-61
2022/09/26 05:30:31;;;;;;;9.50;7.00;;;;;;;12.03;72.77;100130.86;1729571;81;21070;-61
2022/09/26 05:32:57;;;;;;;10.63;6.97;;;;;;;12.01;72.71;100128.86;1722698;81;21593;-61
2022/09/26 05:35:24;;;;;;;9.25;7.03;;;;;;;12.00;72.47;100133.80;1723824;81;21268;-63
2022/09/26 05:37:58;;;;;;;8.65;6.25;;;;;;;11.99;72.31;100132.13;1721404;81;21046;-63
2022/09/26 05:43:10;;;;;;;9.90;6.83;;;;;;;12.11;72.23;100134.14;1713768;81;21012;-63
2022/09/26 05:45:37;;;;;;;10.00;6.50;;;;;;;12.14;72.14;100130.38;1700754;82;21070;-63
2022/09/26 05:48:04;;;;;;;11.78;6.55;;;;;;;12.10;72.07;100129.00;1715467;81;22221;-63
2022/09/26 05:50:32;;;;;;;9.68;6.75;;;;;;;12.10;72.24;100129.00;1711449;82;21540;-63
2022/09/26 05:52:59;;;;;;;9.58;6.25;;;;;;;12.11;72.25;100132.00;1682821;83;21070;-63
2022/09/26 05:55:26;;;;;;;8.83;5.92;;;;;;;12.10;72.27;100136.91;1768010;80;21063;-63
2022/09/26 05:58:07;;;;;;;9.75;5.62;;;;;;;12.14;72.34;100130.38;1761318;79;21407;-63
2022/09/26 06:00:37;;;;;;;11.90;6.00;;;;;;;12.19;72.25;100136.92;1765320;79;21464;-61
2022/09/26 06:03:04;;;;;;;8.15;6.10;;;;;;;12.22;72.27;100125.23;1770072;79;21794;-61
2022/09/26 06:05:33;;;;;;;8.45;6.03;;;;;;;12.20;72.45;100124.55;1780513;79;21494;-64
2022/09/26 06:08:16;;;;;;;8.40;5.90;;;;;;;12.18;72.54;100113.31;1751047;79;21090;-61
2022/09/26 06:10:45;;;;;;;10.38;6.42;;;;;;;12.16;72.58;100111.31;1760432;79;21090;-61
2022/09/26 06:13:14;;;;;;;7.60;5.42;;;;;;;12.16;72.73;100115.27;1777528;79;21512;-61
2022/09/26 06:15:42;;;;;;;7.95;5.75;;;;;;;12.20;72.81;100109.55;1758294;80;21040;-61
2022/09/26 06:18:09;;;;;;;8.53;6.28;;;;;;;12.24;72.78;100112.77;1771383;79;21034;-62
2022/09/26 06:20:36;;;;;;;9.80;6.15;;;;;;;12.27;72.84;100113.78;1762829;79;21078;-62
2022/09/26 06:23:04;;;;;;;10.50;7.50;;;;;;;12.28;72.89;100112.00;1765127;79;21550;-62
2022/09/26 06:25:32;;;;;;;9.80;7.00;;;;;;;12.29;72.98;100111.86;1781798;79;21477;-62
2022/09/26 06:28:01;;;;;;;10.68;6.95;;;;;;;12.29;73.05;100103.94;1758340;79;21517;-62
2022/09/26 06:30:29;;;;;;;10.10;6.80;;;;;;;12.32;73.00;100105.45;1758417;80;21555;-62
2022/09/26 06:32:57;;;;;;;9.33;6.85;;;;;;;12.36;72.87;100106.36;1778142;80;21033;-62
2022/09/26 06:35:36;;;;;;;12.00;7.95;;;;;;;12.42;72.85;100118.14;1755142;80;22015;-62
2022/09/26 06:38:10;;;;;;;10.50;7.85;;;;;;;12.45;72.85;100121.32;1762158;79;21675;-62
2022/09/26 06:40:36;;;;;;;9.35;7.58;;;;;;;12.46;72.64;100124.81;1767315;80;21007;-62
2022/09/26 06:44:35;;;;;;;9.48;6.87;;;;;;;12.47;72.45;100121.68;1775348;79;22169;-63
2022/09/26 06:47:08;;;;;;;9.63;6.70;;;;;;;12.52;72.01;100121.59;1738985;80;21326;-63
2022/09/26 06:49:37;;;;;;;9.05;6.50;;;;;;;12.53;71.70;100121.13;1718551;81;21847;-63
2022/09/26 06:52:06;;;;;;;12.03;7.55;;;;;;;12.52;71.80;100122.91;1699277;83;21413;-63
2022/09/26 06:54:33;;;;;;;10.03;6.97;;;;;;;12.50;71.99;100133.28;1721340;81;21114;-63
2022/09/26 06:57:00;;;;;;;11.28;7.85;;;;;;;12.49;71.92;100134.23;1720825;82;21567;-63
2022/09/26 06:59:27;;;;;;;9.28;6.53;;;;;;;12.46;72.02;100138.02;1690733;81;21030;-63
2022/09/26 07:01:55;;;;;;;9.93;7.03;;;;;;;12.44;72.13;100133.37;1724668;81;22023;-63
2022/09/26 07:04:40;;;;;;;9.73;6.20;;;;;;;12.49;72.07;100136.41;1701345;81;21049;-63
2022/09/26 07:07:09;;;;;;;9.88;7.10;;;;;;;12.51;72.07;100138.42;1711100;81;21058;-63
2022/09/26 07:09:35;;;;;;;10.65;7.00;;;;;;;12.51;72.22;100142.37;1733537;81;21105;-63
2022/09/26 07:12:17;;;;;;;9.80;7.35;;;;;;;12.51;72.30;100142.84;1709259;83;21049;-61
2022/09/26 07:14:44;;;;;;;10.43;6.85;;;;;;;12.54;72.26;100138.61;1720727;81;21783;-61
2022/09/26 07:17:15;;;;;;;10.68;7.50;;;;;;;12.61;71.88;100141.05;1699874;82;20982;-63
2022/09/26 07:19:43;;;;;;;9.20;6.67;;;;;;;12.69;71.93;100142.95;1711928;81;21043;-63
2022/09/26 07:22:29;;;;;;;12.03;7.20;;;;;;;12.74;71.97;100133.66;1720047;81;21401;-63
2022/09/26 07:24:55;;;;;;;12.63;7.12;;;;;;;12.75;72.05;100127.38;1721814;81;21077;-62
2022/09/26 07:27:22;;;;;;;12.40;7.70;;;;;;;12.74;71.99;100127.05;1721749;82;21141;-63
2022/09/26 07:29:49;;;;;;;9.60;6.75;;;;;;;12.79;71.97;100120.85;1717556;81;21057;-63
2022/09/26 07:32:17;;;;;;;12.35;7.37;;;;;;;12.88;71.84;100116.52;1713743;82;21038;-63
2022/09/26 07:34:46;;;;;;;9.63;6.72;;;;;;;12.97;71.74;100116.95;1682155;81;21062;-63
2022/09/26 07:37:16;;;;;;;10.70;7.42;;;;;;;13.05;71.60;100120.20;1718192;81;21074;-63
2022/09/26 07:39:44;;;;;;;10.18;7.45;;;;;;;13.14;71.48;100117.17;1688382;83;22244;-63
2022/09/26 07:42:11;;;;;;;12.35;7.97;;;;;;;13.17;71.19;100113.74;1692628;83;21048;-63
2022/09/26 07:44:39;;;;;;;10.30;7.10;;;;;;;13.21;70.88;100112.95;1687543;83;21043;-63
2022/09/26 07:52:57;;;;;;;10.85;7.45;;;;;;;13.33;68.98;100110.98;1742240;81;21877;-63
2022/09/26 07:55:26;;;;;;;10.98;7.17;;;;;;;13.34;68.68;100107.37;1691641;82;21078;-63
2022/09/26 07:58:11;;;;;;;10.03;7.72;;;;;;;13.34;68.68;100104.73;1699137;83;21098;-63
2022/09/26 08:00:57;;;;;;;11.85;6.53;;;;;;;13.37;69.01;100107.90;1704230;82;21058;-63
2022/09/26 08:03:28;;;;;;;10.85;6.85;;;;;;;13.43;68.77;100102.53;1728707;82;21020;-63
2022/09/26 08:06:00;;;;;;;10.32;6.78;;;;;;;13.54;68.60;100105.45;1704773;82;21150;-62
2022/09/26 08:08:29;;;;;;;13.95;7.05;;;;;;;13.61;68.58;100100.39;1722667;81;21063;-63
2022/09/26 08:10:59;;;;;;;8.20;6.20;;;;;;;13.65;68.54;100098.63;1726642;80;21031;-63
2022/09/26 08:13:29;;;;;;;11.08;6.90;;;;;;;13.69;68.47;100098.66;1715299;82;21051;-63
2022/09/26 08:16:03;;;;;;;9.48;6.33;;;;;;;13.70;68.10;100099.48;1673549;83;21027;-64
2022/09/26 08:18:31;;;;;;;11.88;6.83;;;;;;;13.69;68.43;100098.66;1740133;81;21146;-63
2022/09/26 08:20:58;;;;;;;13.28;6.85;;;;;;;13.77;68.50;100096.59;1741627;81;21016;-63
2022/09/26 08:23:26;;;;;;;11.80;6.87;;;;;;;13.89;68.08;100086.62;1730639;81;21023;-63
2022/09/26 08:26:11;;;;;;;9.85;6.78;;;;;;;14.00;68.34;100075.79;1705019;80;21123;-63
2022/09/26 08:28:42;;;;;;;11.12;6.58;;;;;;;14.10;68.60;100065.98;1724569;80;21019;-64
2022/09/26 08:31:10;;;;;;;9.78;5.97;;;;;;;14.23;68.67;100062.09;1683533;83;22065;-64
2022/09/26 08:33:37;;;;;;;8.68;5.95;;;;;;;14.35;68.58;100060.02;1696528;82;21051;-64
2022/09/26 08:36:09;;;;;;;10.45;6.90;;;;;;;14.54;68.28;100058.50;1705748;84;21047;-63
2022/09/26 08:38:38;;;;;;;9.63;6.60;;;;;;;14.75;67.70;100051.52;1703169;82;20984;-64
2022/09/26 08:41:43;;;;;;;9.30;5.62;;;;;;;14.93;66.94;100058.06;1682424;82;22203;-63
2022/09/26 08:46:22;;;;;;;8.78;5.80;;;;;;;15.12;66.27;100058.30;1632838;85;21114;-63
2022/09/26 08:47:49;;;;;;;8.03;5.78;;;;;;;15.29;65.49;100059.17;1673621;84;21007;-64
2022/09/26 08:50:47;;;;;;;8.95;5.85;;;;;;;15.40;63.83;100062.03;1735765;81;21504;-63
2022/09/26 08:53:18;;;;;;;10.43;5.83;;;;;;;15.46;63.05;100063.20;1729868;81;21629;-63
2022/09/26 08:55:47;;;;;;;7.95;4.70;;;;;;;15.55;61.75;100060.87;1730484;80;20989;-64
2022/09/26 08:58:32;;;;;;;7.12;4.47;;;;;;;15.67;60.47;100059.59;1740876;81;21764;-63
2022/09/26 09:01:02;;;;;;;8.73;4.03;;;;;;;15.82;59.81;100059.81;1737389;81;21062;-64
2022/09/26 09:03:48;;;;;;;8.30;4.67;;;;;;;15.97;58.71;100069.27;1695147;82;21640;-64
2022/09/26 09:06:16;;;;;;;6.30;3.30;;;;;;;16.12;57.52;100058.80;1706155;83;21055;-64
2022/09/26 09:08:45;;;;;;;7.37;3.98;;;;;;;16.28;56.53;100059.30;1678853;83;21030;-65
2022/09/26 09:11:48;;;;;;;6.47;3.75;;;;;;;16.39;54.74;100057.63;1702469;83;21142;-65
2022/09/26 09:14:47;;;;;;;7.87;3.77;;;;;;;16.47;54.67;100059.42;1735694;80;21060;-65
2022/09/26 09:17:41;;;;;;;7.78;3.98;;;;;;;16.57;54.38;100056.07;1734232;82;21047;-65
2022/09/26 09:20:38;;;;;;;9.00;3.80;;;;;;;16.70;54.31;100054.22;1713670;81;21051;-65
2022/09/26 09:24:01;;;;;;;9.10;4.12;;;;;;;16.86;53.58;100052.02;1677840;83;21086;-65
2022/09/26 09:26:49;;;;;;;8.20;3.58;;;;;;;16.98;52.49;100055.13;1722266;82;21244;-65
2022/09/26 09:29:39;;;;;;;6.78;4.25;;;;;;;17.07;52.25;100056.77;1704781;82;21137;-65
2022/09/26 09:32:20;;;;;;;6.20;2.90;;;;;;;17.17;51.00;100056.56;1660573;84;21564;-64
2022/09/26 09:34:51;;;;;;;5.33;3.22;;;;;;;17.31;50.37;100061.64;1714461;81;21038;-64
2022/09/26 09:37:36;;;;;;;6.08;3.25;;;;;;;17.40;48.91;100056.58;1718645;80;21035;-65
2022/09/26 09:40:28;;;;;;;5.17;3.12;;;;;;;17.47;48.17;100052.23;1733428;81;21180;-64
2022/09/26 09:43:16;;;;;;;6.45;3.35;;;;;;;17.56;47.42;100056.48;1726636;81;21075;-64
2022/09/26 09:45:47;;;;;;;5.65;3.10;;;;;;;17.59;47.13;100061.97;1740172;80;21008;-64
2022/09/26 09:48:14;;;;;;;7.53;3.12;;;;;;;17.63;47.09;100050.81;1730614;80;21489;-64
2022/09/26 09:51:04;;;;;;;5.22;3.17;;;;;;;17.72;46.21;100050.72;1700996;82;21070;-65
2022/09/26 09:54:03;;;;;;;6.30;3.12;;;;;;;17.81;46.77;100053.66;1737677;81;21868;-64
2022/09/26 09:56:55;;;;;;;5.22;2.95;;;;;;;17.91;46.39;100056.12;1738234;81;21495;-65
2022/09/26 09:59:30;;;;;;;7.92;3.22;;;;;;;17.95;46.61;100046.76;1736484;81;21035;-65
2022/09/26 10:02:27;;;;;;;6.37;3.05;;;;;;;18.00;45.79;100047.05;1703101;80;21148;-65
2022/09/26 10:05:38;;;;;;;6.03;2.85;;;;;;;18.01;45.46;100046.87;1721963;81;21039;-65
2022/09/26 10:08:17;;;;;;;6.12;3.52;;;;;;;18.04;46.23;100037.71;1731624;81;21199;-65
2022/09/26 10:11:16;;;;;;;7.22;3.50;;;;;;;18.11;46.98;100035.97;1726837;80;21067;-65
2022/09/26 10:14:09;;;;;;;6.47;3.02;;;;;;;18.19;47.25;100025.77;1733135;82;20993;-65
2022/09/26 10:17:13;;;;;;;7.62;3.65;;;;;;;18.24;45.84;100023.86;1735486;81;21028;-65
2022/09/26 10:19:43;;;;;;;7.60;2.95;;;;;;;18.19;45.84;100019.92;1690412;82;21051;-65
2022/09/26 10:22:24;;;;;;;7.50;3.30;;;;;;;18.17;45.87;100023.76;1689617;84;21216;-64
2022/09/26 10:24:52;;;;;;;6.45;3.08;;;;;;;18.15;45.78;100020.45;1715373;81;21265;-64
2022/09/26 10:27:38;;;;;;;7.05;3.12;;;;;;;18.08;46.06;100020.36;1731916;81;21086;-62
2022/09/26 10:30:24;;;;;;;6.20;2.90;;;;;;;18.08;46.06;99999.56;1700625;83;22229;-62
2022/09/26 10:33:00;;;;;;;5.17;3.15;;;;;;;18.08;46.06;99999.56;1700230;84;22268;-62
2022/09/26 10:35:43;;;;;;;6.60;3.85;;;;;;;18.14;46.90;100000.16;1680872;82;21151;-62
2022/09/26 10:38:26;;;;;;;6.78;3.60;;;;;;;18.23;46.84;99996.41;1727460;80;21137;-63
2022/09/26 10:41:11;;;;;;;6.15;3.50;;;;;;;18.27;46.23;99992.36;1732892;80;21062;-62
2022/09/26 10:43:38;;;;;;;5.30;3.05;;;;;;;18.30;46.33;99997.84;1718205;81;21018;-63
2022/09/26 10:46:17;;;;;;;20.65;5.85;;;;;;;18.31;45.78;99991.00;1701833;82;21050;-65
2022/09/26 10:48:56;;;;;;;7.97;3.43;;;;;;;18.35;45.43;99986.95;1674107;83;21869;-65
2022/09/26 10:51:44;;;;;;;5.97;3.27;;;;;;;18.42;45.32;99984.90;1742577;80;21078;-65
2022/09/26 10:54:18;;;;;;;6.80;3.50;;;;;;;18.44;46.12;99983.72;1743429;81;21022;-65
2022/09/26 10:56:47;;;;;;;7.87;2.92;;;;;;;18.49;46.51;99977.81;1735931;80;21043;-65
2022/09/26 10:59:16;;;;;;;6.22;3.47;;;;;;;18.51;46.02;99977.15;1673047;82;21065;-65
2022/09/26 11:01:50;;;;;;;6.53;3.20;;;;;;;18.52;44.93;99976.12;1728331;80;21018;-65
2022/09/26 11:07:24;;;;;;;5.50;3.05;;;;;;;18.56;45.80;99975.57;1688758;82;21026;-66
2022/09/26 11:09:52;;;;;;;5.92;3.45;;;;;;;18.63;45.72;99973.00;1705941;82;20963;-67
2022/09/26 11:13:14;;;;;;;6.20;3.17;;;;;;;18.70;45.12;99973.89;1680682;83;20995;-64
2022/09/26 11:16:13;;;;;;;6.67;3.50;;;;;;;18.77;46.65;99974.50;1740571;81;21182;-66
2022/09/26 11:19:04;;;;;;;6.83;3.47;;;;;;;18.84;46.51;99974.09;1739956;80;21552;-67
2022/09/26 11:21:43;;;;;;;7.00;3.52;;;;;;;18.89;46.62;99969.84;1736725;80;21016;-64
2022/09/26 11:24:44;;;;;;;5.80;3.08;;;;;;;18.92;46.82;99969.98;1740771;81;21102;-64
2022/09/26 11:27:30;;;;;;;5.75;3.55;;;;;;;18.94;46.98;99966.62;1739148;80;21073;-65
2022/09/26 11:30:08;;;;;;;;;;;;;;;18.92;46.72;99965.98;1745783;80;21079;-65
2022/09/26 11:32:41;;;;;;;7.05;3.52;;;;;;;18.87;46.56;99964.39;1746176;80;20176;-65
2022/09/26 11:35:55;;;;;;;6.60;3.60;;;;;;;18.82;46.83;99961.44;1747156;80;22433;-65
2022/09/26 11:38:37;;;;;;;6.33;3.52;;;;;;;18.81;47.24;99971.77;1743701;80;21041;-65
2022/09/26 11:41:37;;;;;;;8.48;3.33;;;;;;;18.77;47.29;99969.16;1743880;81;21054;-65
2022/09/26 11:44:35;;;;;;;5.90;3.60;;;;;;;18.72;47.18;99963.87;1687032;82;21177;-65
2022/09/26 11:47:54;;;;;;;7.90;3.47;;;;;;;18.70;47.21;99970.41;1694832;83;21114;-65
2022/09/26 11:50:46;;;;;;;6.00;3.58;;;;;;;18.66;47.22;99971.30;1741884;81;21046;-65
2022/09/26 11:53:49;;;;;;;6.28;3.70;;;;;;;18.64;47.57;99964.48;1704896;82;21022;-65
2022/09/26 11:56:38;;;;;;;7.03;4.20;;;;;;;18.66;48.67;99967.78;1680327;83;21608;-65
2022/09/26 11:59:43;;;;;;;6.47;3.83;;;;;;;18.70;48.24;99965.90;1690523;83;23145;-66
2022/09/26 12:02:39;;;;;;;6.70;3.80;;;;;;;18.74;48.74;99966.35;1696744;83;21048;-66
2022/09/26 12:05:25;;;;;;;;;;;;;;;18.81;48.90;99970.43;1701996;83;21102;-65
2022/09/26 12:08:29;;;;;;;6.35;4.15;;;;;;;18.85;48.57;99961.09;1696404;83;20251;-65
2022/09/26 12:11:37;;;;;;;6.03;3.67;;;;;;;18.84;49.22;99966.91;1699140;82;21556;-65
2022/09/26 12:14:34;;;;;;;7.80;4.20;;;;;;;18.85;49.18;99970.42;1688651;83;21352;-65
2022/09/26 12:17:13;;;;;;;5.95;3.83;;;;;;;18.81;48.87;99971.77;1692370;83;21068;-65
2022/09/26 12:19:56;;;;;;;5.85;3.90;;;;;;;18.76;49.37;99966.98;1701452;83;21952;-65
2022/09/26 12:22:32;;;;;;;7.15;3.67;;;;;;;18.73;49.24;99963.38;1696124;83;21483;-65
2022/09/26 12:25:17;;;;;;;6.50;4.08;;;;;;;18.69;48.93;99956.76;1702589;83;21081;-65
2022/09/26 12:28:09;;;;;;;7.05;4.35;;;;;;;18.66;49.29;99953.98;1696813;83;21592;-65
2022/09/26 12:31:07;;;;;;;7.45;4.42;;;;;;;18.65;49.56;99944.83;1699116;83;21371;-65